createdAt,value
2023-03-26T00:00:19.294Z,2.60
2023-03-26T00:05:23.473Z,3.00
2023-03-26T00:10:32.448Z,2.80
2023-03-26T00:15:38.346Z,2.58
2023-03-26T00:20:42.145Z,2.80
2023-03-26T00:25:54.868Z,2.45
2023-03-26T00:31:02.445Z,3.03
2023-03-26T00:36:07.219Z,3.17
2023-03-26T00:41:38.135Z,2.80
2023-03-26T00:46:45.996Z,2.83
2023-03-26T00:51:48.860Z,2.80
2023-03-26T00:56:55.894Z,2.25
2023-03-26T01:02:00.366Z,2.03
2023-03-26T01:07:05.741Z,2.58
2023-03-26T01:12:15.914Z,2.30
2023-03-26T01:17:19.686Z,2.47
2023-03-26T01:22:25.536Z,1.48
2023-03-26T01:27:35.999Z,1.58
2023-03-26T01:32:49.543Z,2.15
2023-03-26T01:38:01.207Z,1.77
2023-03-26T01:43:11.332Z,1.98
2023-03-26T01:48:15.059Z,2.55
2023-03-26T01:53:18.054Z,2.60
2023-03-26T01:58:30.070Z,2.22
2023-03-26T02:03:38.310Z,2.05
2023-03-26T02:08:46.728Z,2.20
2023-03-26T02:13:51.882Z,2.53
2023-03-26T02:18:55.737Z,2.40
2023-03-26T02:24:02.783Z,2.05
2023-03-26T02:29:09.833Z,2.22
2023-03-26T02:34:13.946Z,2.13
2023-03-26T02:39:23.267Z,1.83
2023-03-26T02:44:33.856Z,1.30
2023-03-26T02:49:36.607Z,1.27
2023-03-26T02:54:39.594Z,1.50
2023-03-26T02:59:46.265Z,1.42
2023-03-26T03:05:08.368Z,1.40
2023-03-26T03:10:13.781Z,1.80
2023-03-26T03:15:36.352Z,1.60
2023-03-26T03:20:39.159Z,1.67
2023-03-26T03:25:42.102Z,2.60
2023-03-26T03:30:47.090Z,2.00
2023-03-26T03:35:59.390Z,2.33
2023-03-26T03:41:03.550Z,2.13
2023-03-26T03:46:09.613Z,2.33
2023-03-26T03:51:20.994Z,1.58
2023-03-26T03:56:36.082Z,2.17
2023-03-26T04:02:05.841Z,1.92
2023-03-26T04:07:21.432Z,2.40
2023-03-26T04:13:02.812Z,1.67
2023-03-26T04:18:29.525Z,1.88
2023-03-26T04:23:36.761Z,1.90
2023-03-26T04:28:53.272Z,2.25
2023-03-26T04:34:07.026Z,2.78
2023-03-26T04:39:17.886Z,2.47
2023-03-26T04:44:50.731Z,1.70
2023-03-26T04:49:55.914Z,1.42
2023-03-26T04:54:59.115Z,1.63
2023-03-26T05:00:08.924Z,1.40
2023-03-26T05:05:13.707Z,1.73
2023-03-26T05:10:20.214Z,1.40
2023-03-26T05:15:34.004Z,1.77
2023-03-26T05:20:47.512Z,2.65
2023-03-26T05:25:50.667Z,1.05
2023-03-26T05:30:56.855Z,1.52
2023-03-26T05:36:06.968Z,1.40
2023-03-26T05:41:11.384Z,1.50
2023-03-26T05:46:18.066Z,1.00
2023-03-26T05:51:23.405Z,1.23
2023-03-26T05:56:46.978Z,1.25
2023-03-26T06:02:08.689Z,1.42
2023-03-26T06:07:41.595Z,1.33
2023-03-26T06:12:51.527Z,1.85
2023-03-26T06:17:55.363Z,1.48
2023-03-26T06:23:24.326Z,1.38
2023-03-26T06:28:39.205Z,1.40
2023-03-26T06:34:20.648Z,1.60
2023-03-26T06:39:24.814Z,1.65
2023-03-26T06:44:44.061Z,1.45
2023-03-26T06:50:06.128Z,2.25
2023-03-26T06:55:10.860Z,1.80
2023-03-26T07:00:32.092Z,1.70
2023-03-26T07:05:53.339Z,1.90
2023-03-26T07:11:35.828Z,1.80
2023-03-26T07:16:58.506Z,1.42
2023-03-26T07:22:16.738Z,1.42
2023-03-26T07:27:53.416Z,1.38
2023-03-26T07:33:11.921Z,1.73
2023-03-26T07:38:49.876Z,1.73
2023-03-26T07:44:42.158Z,1.52
2023-03-26T07:50:18.285Z,2.50
2023-03-26T07:55:48.297Z,2.00
2023-03-26T08:01:46.283Z,1.58
2023-03-26T08:06:59.163Z,2.20
2023-03-26T08:12:40.164Z,1.92
2023-03-26T08:17:52.040Z,2.30
2023-03-26T08:23:02.138Z,2.47
2023-03-26T08:28:17.063Z,1.98
2023-03-26T08:33:22.780Z,1.90
2023-03-26T08:38:25.514Z,2.08
2023-03-26T08:44:05.257Z,2.35
2023-03-26T08:49:30.449Z,2.25
2023-03-26T08:54:57.274Z,1.95
2023-03-26T09:00:26.452Z,2.23
2023-03-26T09:06:02.789Z,2.10
2023-03-26T09:11:46.590Z,2.25
2023-03-26T09:17:15.897Z,1.98
2023-03-26T09:23:02.912Z,2.53
2023-03-26T09:28:36.579Z,1.90
2023-03-26T09:33:57.109Z,2.38
2023-03-26T09:39:09.778Z,1.98
2023-03-26T09:44:40.691Z,1.92
2023-03-26T09:49:51.167Z,1.92
2023-03-26T09:55:36.612Z,2.72
2023-03-26T10:00:49.190Z,2.55
2023-03-26T10:06:00.611Z,2.10
2023-03-26T10:11:11.068Z,2.03
2023-03-26T10:16:24.322Z,2.40
2023-03-26T10:21:37.181Z,1.88
2023-03-26T10:27:08.482Z,1.90
2023-03-26T10:32:30.352Z,2.40
2023-03-26T10:37:51.775Z,2.42
2023-03-26T10:43:17.210Z,1.90
2023-03-26T10:49:01.059Z,1.60
2023-03-26T10:54:12.212Z,2.00
2023-03-26T10:59:17.428Z,2.08
2023-03-26T11:04:36.652Z,2.10
2023-03-26T11:09:50.180Z,2.20
2023-03-26T11:15:04.443Z,2.15
2023-03-26T11:20:15.365Z,1.88
2023-03-26T11:25:47.773Z,2.20
2023-03-26T11:30:59.880Z,2.13
2023-03-26T11:36:06.869Z,1.80
2023-03-26T11:41:16.079Z,2.28
2023-03-26T11:46:48.182Z,2.10
2023-03-26T11:51:51.007Z,2.20
2023-03-26T11:57:06.381Z,2.40
2023-03-26T12:02:25.573Z,2.00
2023-03-26T12:07:32.783Z,1.75
2023-03-26T12:12:40.496Z,1.63
2023-03-26T12:17:43.974Z,2.57
2023-03-26T12:22:49.502Z,2.22
2023-03-26T12:28:02.884Z,2.55
2023-03-26T12:33:08.777Z,1.60
2023-03-26T12:38:22.898Z,1.92
2023-03-26T12:44:53.355Z,2.10
2023-03-26T12:54:34.062Z,2.33
2023-03-26T13:00:08.176Z,1.80
2023-03-26T13:05:23.766Z,1.60
2023-03-26T13:10:54.543Z,1.90
2023-03-26T13:16:01.991Z,2.20
2023-03-26T13:21:11.946Z,2.03
2023-03-26T13:26:31.637Z,1.98
2023-03-26T13:31:43.040Z,1.65
2023-03-26T13:36:57.914Z,1.85
2023-03-26T13:42:24.055Z,2.88
2023-03-26T13:47:31.406Z,1.65
2023-03-26T13:52:38.939Z,2.22
2023-03-26T13:57:47.617Z,1.57
2023-03-26T14:02:58.785Z,1.67
2023-03-26T14:08:05.395Z,1.60
2023-03-26T14:13:14.619Z,2.25
2023-03-26T14:18:31.000Z,1.85
2023-03-26T14:23:53.181Z,2.50
2023-03-26T14:29:29.423Z,2.35
2023-03-26T14:34:46.849Z,2.22
2023-03-26T14:40:05.649Z,2.20
2023-03-26T14:50:47.802Z,2.50
2023-03-26T14:56:25.198Z,2.22
2023-03-26T15:01:29.391Z,2.05
2023-03-26T15:07:10.350Z,1.80
2023-03-26T15:12:27.397Z,1.60
2023-03-26T15:18:13.388Z,1.90
2023-03-26T15:23:46.293Z,3.05
2023-03-26T15:29:27.004Z,1.73
2023-03-26T15:34:59.161Z,1.95
2023-03-26T15:40:40.388Z,2.63
2023-03-26T15:45:46.004Z,2.00
2023-03-26T15:50:55.759Z,2.45
2023-03-26T15:56:12.362Z,2.05
2023-03-26T16:01:26.462Z,1.75
2023-03-26T16:06:34.019Z,1.63
2023-03-26T16:11:54.775Z,1.67
2023-03-26T16:16:59.960Z,1.60
2023-03-26T16:22:05.804Z,1.80
2023-03-26T16:27:30.895Z,1.70
2023-03-26T16:32:35.755Z,1.55
2023-03-26T16:37:50.534Z,1.65
2023-03-26T16:43:03.122Z,1.90
2023-03-26T16:48:16.653Z,1.40
2023-03-26T16:53:29.858Z,1.88
2023-03-26T16:58:44.768Z,1.75
2023-03-26T17:03:55.458Z,1.40
2023-03-26T17:09:10.658Z,1.52
2023-03-26T17:14:29.477Z,1.30
2023-03-26T17:19:40.417Z,1.47
2023-03-26T17:24:50.948Z,1.52
2023-03-26T17:30:46.174Z,1.40
2023-03-26T17:35:50.433Z,1.30
2023-03-26T17:40:56.195Z,1.30
2023-03-26T17:46:03.237Z,1.20
2023-03-26T17:51:30.708Z,2.20
2023-03-26T17:56:37.718Z,1.40
2023-03-26T18:01:45.073Z,1.60
2023-03-26T18:07:18.373Z,1.30
2023-03-26T18:12:50.633Z,1.30
2023-03-26T18:18:03.182Z,1.73
2023-03-26T18:23:11.986Z,1.70
2023-03-26T18:28:15.320Z,2.20
2023-03-26T18:33:20.110Z,1.67
2023-03-26T18:38:35.974Z,1.45
2023-03-26T18:43:44.557Z,1.95
2023-03-26T18:48:48.960Z,1.60
2023-03-26T18:53:55.633Z,1.40
2023-03-26T18:59:00.438Z,1.30
2023-03-26T19:04:07.607Z,1.30
2023-03-26T19:09:24.231Z,1.50
2023-03-26T19:42:25.110Z,0.82
2023-03-26T19:48:00.053Z,0.77
2023-03-26T19:54:11.308Z,0.70
2023-03-26T19:59:15.199Z,0.80
2023-03-26T20:04:18.180Z,1.00
2023-03-26T20:09:22.331Z,0.60
2023-03-26T20:14:26.557Z,1.00
2023-03-26T20:19:29.610Z,0.60
2023-03-26T20:24:34.208Z,1.42
2023-03-26T20:29:39.027Z,1.27
2023-03-26T20:41:54.429Z,0.90
2023-03-26T20:47:00.477Z,0.70
2023-03-26T20:52:03.380Z,0.80
2023-03-26T20:57:07.541Z,1.13
2023-03-26T21:02:12.243Z,1.20
2023-03-26T21:07:18.459Z,0.95
2023-03-26T21:12:30.027Z,1.13
2023-03-26T21:17:33.399Z,1.20
2023-03-26T21:22:43.368Z,1.20
2023-03-26T21:27:57.721Z,1.10
2023-03-26T21:33:00.702Z,0.95
2023-03-26T21:38:05.763Z,1.10
2023-03-26T21:43:13.282Z,1.10
2023-03-26T21:48:16.926Z,1.10
2023-03-26T21:53:21.688Z,0.80
2023-03-26T21:58:42.186Z,1.05
2023-03-26T22:03:56.070Z,1.08
2023-03-26T22:08:59.585Z,1.20
2023-03-26T22:14:03.677Z,1.20
2023-03-26T22:19:07.247Z,1.20
2023-03-26T22:24:10.008Z,1.10
2023-03-26T22:29:14.461Z,1.48
2023-03-26T22:34:17.711Z,1.00
2023-03-26T22:39:20.766Z,1.10
2023-03-26T22:44:25.343Z,1.17
2023-03-26T22:49:30.267Z,1.27
2023-03-26T22:54:33.123Z,0.73
2023-03-26T22:59:37.355Z,1.00
2023-03-26T23:04:42.659Z,2.65
2023-03-26T23:09:45.634Z,1.00
2023-03-26T23:14:52.982Z,1.02
2023-03-26T23:19:55.895Z,1.00
2023-03-26T23:24:58.726Z,1.00
2023-03-26T23:30:04.172Z,0.88
2023-03-26T23:35:07.922Z,0.60
2023-03-26T23:40:12.469Z,1.05
2023-03-26T23:45:16.924Z,1.40
2023-03-26T23:50:20.634Z,1.15
2023-03-26T23:55:23.400Z,1.08
